Time;durP1;ratioP1;P1;durP2;ratioP2;P2;SDS_P1;SDS_P2;PMS_P1;PMS_P2;Temp;Humidity;BMP_temperature;BMP_pressure;BME280_temperature;BME280_humidity;BME280_pressure;Samples;Min_cycle;Max_cycle;Signal;HPM_P1;HPM_P2
2022/05/31 00:02:20;;;;;;;7.20;3.98;;;;;;;15.47;78.59;99509.64;1733934;82;21079;-83
2022/05/31 00:04:47;;;;;;;3.33;2.90;;;;;;;15.41;78.61;99509.48;1733708;82;21143;-82
2022/05/31 00:07:14;;;;;;;10.25;3.65;;;;;;;15.38;78.58;99507.00;1733714;82;21112;-83
2022/05/31 00:09:40;;;;;;;9.03;3.75;;;;;;;15.34;78.55;99503.66;1733778;82;21032;-83
2022/05/31 00:12:08;;;;;;;6.95;4.47;;;;;;;15.30;78.44;99513.19;1733609;82;20997;-82
2022/05/31 00:14:34;;;;;;;8.10;4.50;;;;;;;15.26;79.02;99509.00;1733865;82;21001;-82
2022/05/31 00:17:02;;;;;;;6.55;4.75;;;;;;;15.23;79.93;99507.36;1733687;82;21549;-84
2022/05/31 00:19:30;;;;;;;9.00;4.92;;;;;;;15.21;80.19;99506.59;1733707;82;22050;-83
2022/05/31 00:22:13;;;;;;;6.25;4.85;;;;;;;15.18;80.52;99515.58;1733816;82;22256;-82
2022/05/31 00:24:40;;;;;;;15.68;5.15;;;;;;;15.15;80.64;99519.72;1733643;82;21150;-82
2022/05/31 00:27:08;;;;;;;7.55;4.40;;;;;;;15.12;80.42;99519.88;1733960;82;21124;-83
2022/05/31 00:29:36;;;;;;;8.43;4.20;;;;;;;15.10;80.24;99527.06;1738205;82;21153;-83
2022/05/31 00:32:07;;;;;;;7.47;4.97;;;;;;;15.09;80.25;99522.69;1740356;82;21116;-82
2022/05/31 00:34:37;;;;;;;8.33;4.92;;;;;;;15.06;80.22;99528.14;1740473;82;21132;-83
2022/05/31 00:37:03;;;;;;;6.03;4.30;;;;;;;15.03;80.35;99529.66;1740555;82;21054;-84
2022/05/31 00:39:31;;;;;;;5.37;4.22;;;;;;;15.01;80.49;99524.88;1740512;82;21077;-84
2022/05/31 00:42:02;;;;;;;4.75;3.98;;;;;;;15.01;80.38;99524.88;1740545;82;21189;-82
2022/05/31 00:44:29;;;;;;;5.80;4.42;;;;;;;15.00;80.37;99519.21;1740557;82;21063;-83
2022/05/31 00:47:09;;;;;;;11.75;4.00;;;;;;;14.99;80.29;99521.46;1740748;82;21109;-83
2022/05/31 00:49:50;;;;;;;7.92;4.60;;;;;;;14.97;80.16;99515.39;1740530;82;21116;-83
2022/05/31 00:52:27;;;;;;;11.05;4.22;;;;;;;14.94;79.90;99517.72;1735070;82;21042;-82
2022/05/31 00:55:06;;;;;;;7.97;4.58;;;;;;;14.93;79.75;99527.07;1740621;82;21818;-83
2022/05/31 00:57:34;;;;;;;6.60;4.58;;;;;;;14.86;79.69;99538.01;1740410;82;21041;-83
2022/05/31 01:00:10;;;;;;;5.00;4.12;;;;;;;14.82;79.98;99535.59;1740169;82;21583;-83
2022/05/31 01:02:38;;;;;;;7.80;4.22;;;;;;;14.81;80.11;99540.48;1740979;82;21057;-83
2022/05/31 01:05:06;;;;;;;4.28;3.77;;;;;;;14.78;79.97;99530.92;1740539;82;21005;-83
2022/05/31 01:07:34;;;;;;;4.72;4.20;;;;;;;14.76;79.88;99530.16;1740727;82;22184;-82
2022/05/31 01:10:03;;;;;;;5.80;3.80;;;;;;;14.73;79.76;99531.63;1740436;82;21652;-82
2022/05/31 01:12:45;;;;;;;5.25;3.70;;;;;;;14.68;79.52;99534.51;1722288;82;21097;-83
2022/05/31 01:15:24;;;;;;;4.33;3.95;;;;;;;14.63;79.32;99535.69;1622091;88;21114;-83
2022/05/31 01:18:09;;;;;;;4.65;4.10;;;;;;;14.60;79.42;99534.04;1740354;82;21827;-83
2022/05/31 01:20:38;;;;;;;4.20;3.85;;;;;;;14.57;79.60;99538.61;1740579;82;21184;-83
2022/05/31 01:23:13;;;;;;;7.00;3.70;;;;;;;14.54;79.69;99541.41;1739935;82;21025;-83
2022/05/31 01:26:10;;;;;;;8.03;4.30;;;;;;;14.54;79.72;99546.70;1719225;82;21132;-82
2022/05/31 01:29:16;;;;;;;4.75;3.87;;;;;;;14.53;79.77;99546.33;1740361;82;21697;-83
2022/05/31 01:31:48;;;;;;;4.55;4.05;;;;;;;14.53;80.01;99541.03;1740529;82;21073;-82
2022/05/31 01:34:20;;;;;;;4.12;3.67;;;;;;;14.51;80.19;99542.44;1740410;82;21155;-83
2022/05/31 01:36:50;;;;;;;5.40;3.80;;;;;;;14.52;80.31;99553.39;1740131;82;21121;-82
2022/05/31 01:39:37;;;;;;;6.25;3.83;;;;;;;14.53;80.61;99551.63;1740358;82;21460;-83
2022/05/31 01:42:40;;;;;;;6.33;3.72;;;;;;;14.53;80.89;99548.50;1739654;82;20977;-83
2022/05/31 01:45:22;;;;;;;4.95;3.55;;;;;;;14.54;81.11;99549.34;1733959;82;21680;-83
2022/05/31 01:47:49;;;;;;;3.85;3.45;;;;;;;14.56;81.18;99552.77;1733612;82;21070;-82
2022/05/31 01:50:19;;;;;;;4.03;3.72;;;;;;;14.56;81.16;99551.45;1733702;82;21622;-83
2022/05/31 01:52:46;;;;;;;6.90;3.87;;;;;;;14.55;81.11;99552.39;1733728;82;21357;-83
2022/05/31 01:55:13;;;;;;;3.62;3.42;;;;;;;14.56;81.10;99551.45;1733954;82;21499;-83
2022/05/31 01:57:42;;;;;;;6.00;3.80;;;;;;;14.57;81.14;99549.20;1733800;82;21037;-85
2022/05/31 02:00:12;;;;;;;4.85;4.00;;;;;;;14.57;81.14;99559.79;1733882;82;21120;-83
2022/05/31 02:02:45;;;;;;;4.03;3.60;;;;;;;14.55;81.18;99555.05;1733947;82;21150;-83
2022/05/31 02:05:13;;;;;;;5.20;3.90;;;;;;;14.56;81.05;99552.77;1733607;82;21033;-84
2022/05/31 02:07:41;;;;;;;7.62;3.52;;;;;;;14.58;80.94;99545.63;1713033;82;21008;-83
2022/05/31 02:10:08;;;;;;;5.03;4.05;;;;;;;14.60;80.66;99547.28;1712978;82;21063;-83
2022/05/31 02:12:38;;;;;;;7.70;3.80;;;;;;;14.62;80.52;99551.17;1733486;82;21313;-83
2022/05/31 02:15:25;;;;;;;7.80;5.10;;;;;;;14.64;80.29;99550.63;1733854;82;21574;-83
2022/05/31 02:18:05;;;;;;;10.20;4.70;;;;;;;14.66;80.23;99540.83;1661785;82;21102;-84
2022/05/31 02:20:49;;;;;;;7.25;4.40;;;;;;;14.69;79.97;99544.63;1733979;82;21006;-82
2022/05/31 02:23:16;;;;;;;6.40;4.70;;;;;;;14.71;79.99;99544.10;1733975;82;20984;-83
2022/05/31 02:25:44;;;;;;;7.30;5.08;;;;;;;14.72;79.92;99545.80;1733779;82;21028;-83
2022/05/31 02:28:10;;;;;;;7.67;4.95;;;;;;;14.74;80.08;99546.56;1733071;82;21134;-83
2022/05/31 02:30:37;;;;;;;12.18;6.20;;;;;;;14.77;80.07;99545.56;1746886;81;21122;-84
2022/05/31 02:33:04;;;;;;;10.63;5.45;;;;;;;14.80;80.24;99546.73;1747464;82;21137;-84
2022/05/31 02:35:30;;;;;;;8.90;5.70;;;;;;;14.82;80.55;99552.33;1747516;82;21038;-83
2022/05/31 02:37:58;;;;;;;9.43;5.45;;;;;;;14.85;80.93;99553.98;1747498;82;22193;-82
2022/05/31 02:40:27;;;;;;;9.30;5.37;;;;;;;14.87;80.92;99561.38;1747745;82;20996;-83
2022/05/31 02:42:54;;;;;;;8.20;5.55;;;;;;;14.91;80.85;99562.95;1747470;82;21609;-83
2022/05/31 02:45:20;;;;;;;9.50;5.75;;;;;;;14.97;80.66;99559.11;1747623;82;21734;-84
2022/05/31 02:47:48;;;;;;;8.63;5.87;;;;;;;15.00;80.88;99554.98;1747413;82;21110;-82
2022/05/31 02:50:15;;;;;;;15.40;5.78;;;;;;;15.03;81.45;99561.45;1747249;82;21760;-84
2022/05/31 02:52:42;;;;;;;7.28;5.17;;;;;;;15.06;81.56;99554.64;1747533;82;21019;-83
2022/05/31 02:55:09;;;;;;;7.97;5.45;;;;;;;15.10;81.80;99558.86;1718115;82;21051;-83
2022/05/31 02:57:53;;;;;;;7.67;5.37;;;;;;;15.12;82.06;99551.67;1747650;82;21000;-83
2022/05/31 03:00:37;;;;;;;10.80;5.72;;;;;;;15.15;82.24;99559.95;1692479;83;21568;-84
2022/05/31 03:03:19;;;;;;;11.85;4.80;;;;;;;15.19;82.40;99562.81;1734568;82;21578;-82
2022/05/31 03:06:04;;;;;;;10.13;5.45;;;;;;;15.24;82.56;99568.72;1747708;82;20984;-83
2022/05/31 03:08:41;;;;;;;5.62;5.10;;;;;;;15.27;82.59;99569.89;1746573;82;21090;-83
2022/05/31 03:11:17;;;;;;;8.90;4.90;;;;;;;15.32;82.67;99578.93;1747447;82;21004;-83
2022/05/31 03:13:44;;;;;;;5.50;4.65;;;;;;;15.36;82.69;99576.01;1743152;82;21663;-83
2022/05/31 03:16:12;;;;;;;5.33;4.83;;;;;;;15.41;82.70;99575.77;1747271;82;21137;-83
2022/05/31 03:18:40;;;;;;;6.42;4.37;;;;;;;15.43;82.92;99579.19;1747415;82;21042;-83
2022/05/31 03:21:17;;;;;;;5.80;4.60;;;;;;;15.48;82.79;99582.45;1747774;82;21580;-82
2022/05/31 03:23:48;;;;;;;8.33;4.85;;;;;;;15.52;82.91;99584.02;1747616;82;21596;-82
2022/05/31 03:26:15;;;;;;;5.83;4.67;;;;;;;15.58;82.76;99585.02;1747462;82;21066;-83
2022/05/31 03:28:42;;;;;;;5.42;4.90;;;;;;;15.61;82.64;99590.13;1747638;82;21335;-82
2022/05/31 03:31:09;;;;;;;5.40;4.87;;;;;;;15.65;82.58;99585.98;1749665;81;20995;-83
2022/05/31 03:33:36;;;;;;;7.58;4.47;;;;;;;15.68;82.51;99585.34;1753280;81;21066;-83
2022/05/31 03:36:05;;;;;;;8.70;4.90;;;;;;;15.73;82.38;99588.60;1753070;81;21126;-82
2022/05/31 03:38:34;;;;;;;6.10;4.85;;;;;;;15.76;82.24;99591.61;1751680;81;20987;-82
2022/05/31 03:41:01;;;;;;;6.03;4.80;;;;;;;15.78;82.36;99595.02;1749054;81;21227;-81
2022/05/31 03:43:38;;;;;;;6.87;5.00;;;;;;;15.79;82.31;99595.42;1741239;82;21139;-83
2022/05/31 03:46:17;;;;;;;5.22;4.83;;;;;;;15.84;82.18;99593.85;1741860;82;21059;-81
2022/05/31 03:49:01;;;;;;;7.65;4.97;;;;;;;15.85;82.20;99597.72;1742421;82;21036;-83
2022/05/31 03:51:30;;;;;;;6.17;4.30;;;;;;;15.84;82.24;99598.67;1739277;82;20996;-82
2022/05/31 03:54:00;;;;;;;7.72;5.05;;;;;;;15.85;82.14;99603.02;1742019;82;21661;-83
2022/05/31 03:56:45;;;;;;;6.42;4.95;;;;;;;15.89;82.20;99598.43;1741942;82;21593;-84
2022/05/31 03:59:12;;;;;;;6.20;5.10;;;;;;;15.91;82.14;99605.83;1741780;82;21602;-82
2022/05/31 04:01:41;;;;;;;6.20;5.30;;;;;;;15.90;82.06;99604.98;1741893;82;21071;-82
2022/05/31 04:04:08;;;;;;;5.50;4.85;;;;;;;15.90;81.91;99610.29;1742229;82;21023;-82
2022/05/31 04:06:35;;;;;;;9.10;5.17;;;;;;;15.92;81.79;99608.40;1741748;82;21135;-83
2022/05/31 04:09:03;;;;;;;5.78;5.17;;;;;;;15.93;81.74;99600.80;1742167;82;21075;-82
2022/05/31 04:11:31;;;;;;;6.80;5.42;;;;;;;15.94;81.64;99606.52;1741881;82;21131;-82
2022/05/31 04:14:00;;;;;;;6.87;5.47;;;;;;;15.95;81.68;99616.20;1741843;82;21092;-82
2022/05/31 04:16:35;;;;;;;6.00;5.12;;;;;;;15.97;81.55;99620.94;1739646;82;21100;-81
2022/05/31 04:19:04;;;;;;;7.25;5.35;;;;;;;16.02;81.37;99623.80;1741838;82;21606;-82
2022/05/31 04:21:30;;;;;;;5.85;5.17;;;;;;;16.04;81.39;99625.89;1743581;81;20974;-82
2022/05/31 04:23:58;;;;;;;6.00;4.90;;;;;;;16.04;81.25;99625.44;1750099;82;21102;-82
2022/05/31 04:26:28;;;;;;;7.60;5.45;;;;;;;16.04;81.06;99625.89;1746943;82;21067;-82
2022/05/31 04:29:13;;;;;;;8.58;4.90;;;;;;;16.05;80.85;99634.25;1730722;82;21028;-82
2022/05/31 04:31:58;;;;;;;8.15;5.03;;;;;;;16.05;80.69;99632.92;1744849;82;21111;-82
2022/05/31 04:34:34;;;;;;;7.53;5.50;;;;;;;16.05;80.71;99627.61;1729189;82;20982;-82
2022/05/31 04:37:00;;;;;;;6.12;5.17;;;;;;;16.02;80.75;99624.67;1742010;82;21070;-82
2022/05/31 04:39:28;;;;;;;6.03;5.05;;;;;;;16.03;80.64;99631.67;1741600;81;21139;-83
2022/05/31 04:41:57;;;;;;;9.35;4.83;;;;;;;16.04;80.67;99629.42;1742302;82;21519;-83
2022/05/31 04:44:24;;;;;;;6.28;5.67;;;;;;;16.05;80.65;99638.23;1742308;82;21125;-82
2022/05/31 04:46:52;;;;;;;7.08;6.00;;;;;;;16.04;80.57;99632.08;1742182;82;21107;-83
2022/05/31 04:49:21;;;;;;;10.00;5.75;;;;;;;16.05;80.60;99643.53;1741304;81;21067;-82
2022/05/31 04:51:48;;;;;;;22.13;6.40;;;;;;;16.06;80.49;99653.23;1742062;82;21138;-82
2022/05/31 04:54:17;;;;;;;13.40;5.12;;;;;;;16.06;80.44;99657.20;1742007;81;21059;-80
2022/05/31 04:57:00;;;;;;;9.03;5.47;;;;;;;16.05;80.24;99667.42;1741940;81;21796;-81
2022/05/31 04:59:27;;;;;;;8.15;6.10;;;;;;;16.03;80.04;99666.18;1742137;82;21075;-82
2022/05/31 05:01:55;;;;;;;8.65;6.05;;;;;;;16.02;79.97;99666.26;1741963;81;21052;-82
2022/05/31 05:04:23;;;;;;;8.85;6.65;;;;;;;15.98;80.10;99670.41;1738068;82;21052;-83
2022/05/31 05:06:51;;;;;;;7.75;6.25;;;;;;;15.98;80.24;99670.88;1742298;81;21103;-83
2022/05/31 05:09:19;;;;;;;7.70;5.83;;;;;;;15.96;80.17;99670.97;1742286;81;21457;-82
2022/05/31 05:11:47;;;;;;;10.60;6.45;;;;;;;16.00;80.11;99672.13;1740780;82;21004;-83
2022/05/31 05:14:16;;;;;;;6.72;5.97;;;;;;;16.02;80.02;99673.77;1740697;81;21008;-82
2022/05/31 05:16:44;;;;;;;7.30;5.90;;;;;;;16.03;79.97;99674.63;1740644;81;21495;-82
2022/05/31 05:19:12;;;;;;;8.00;6.33;;;;;;;16.02;79.91;99671.56;1742345;82;21557;-82
2022/05/31 05:21:41;;;;;;;9.08;5.22;;;;;;;16.03;79.91;99674.63;1742135;82;21096;-82
2022/05/31 05:24:08;;;;;;;5.85;5.33;;;;;;;16.06;79.80;99674.45;1741934;82;21052;-82
2022/05/31 05:26:37;;;;;;;11.70;5.70;;;;;;;16.09;79.71;99679.60;1741274;81;20997;-82
2022/05/31 05:32:09;;;;;;;6.40;5.80;;;;;;;16.08;79.24;99683.19;1742249;81;21068;-83
2022/05/31 05:34:36;;;;;;;9.05;6.08;;;;;;;16.09;79.11;99686.23;1742147;82;21032;-82
2022/05/31 05:37:04;;;;;;;9.13;5.62;;;;;;;16.10;78.93;99694.56;1742092;81;21016;-82
2022/05/31 05:39:31;;;;;;;7.28;5.50;;;;;;;16.11;78.84;99681.70;1737161;82;21097;-81
2022/05/31 05:42:13;;;;;;;11.28;5.83;;;;;;;16.13;78.86;99675.83;1694406;82;21966;-83
2022/05/31 05:44:42;;;;;;;6.83;6.12;;;;;;;16.18;78.85;99671.59;1734151;82;21064;-82
2022/05/31 05:47:14;;;;;;;5.97;5.47;;;;;;;16.22;78.53;99673.97;1733859;82;21066;-82
2022/05/31 05:49:39;;;;;;;6.87;6.00;;;;;;;16.24;78.52;99674.77;1733815;81;21123;-82
2022/05/31 05:52:09;;;;;;;8.83;5.97;;;;;;;16.26;78.46;99679.52;1731031;82;21040;-83
2022/05/31 05:54:55;;;;;;;7.25;6.50;;;;;;;16.28;78.30;99684.27;1736734;82;21001;-82
2022/05/31 05:57:29;;;;;;;9.20;5.90;;;;;;;16.30;77.87;99695.65;1684519;82;20924;-81
2022/05/31 06:00:16;;;;;;;7.00;6.30;;;;;;;16.32;77.66;99692.47;1733885;82;21221;-82
2022/05/31 06:03:02;;;;;;;8.03;5.72;;;;;;;16.36;77.60;99691.81;1733634;82;21047;-82
2022/05/31 06:05:31;;;;;;;8.77;6.33;;;;;;;16.41;77.36;99695.52;1731234;82;21666;-82
2022/05/31 06:08:02;;;;;;;6.28;5.53;;;;;;;16.43;77.44;99692.33;1733918;82;21294;-82
2022/05/31 06:10:45;;;;;;;9.23;5.80;;;;;;;16.45;77.25;99691.77;1733788;82;21582;-83
2022/05/31 06:13:19;;;;;;;7.12;5.90;;;;;;;16.49;77.04;99701.27;1733014;82;21133;-82
2022/05/31 06:15:51;;;;;;;6.90;6.08;;;;;;;16.48;77.02;99706.20;1732999;82;21067;-82
2022/05/31 06:18:23;;;;;;;7.53;5.60;;;;;;;16.48;77.06;99711.04;1733690;82;21571;-82
2022/05/31 06:20:54;;;;;;;7.53;5.70;;;;;;;16.51;76.99;99712.68;1733962;82;21131;-82
2022/05/31 06:23:21;;;;;;;8.83;5.87;;;;;;;16.54;76.91;99711.16;1733795;82;21047;-83
2022/05/31 06:25:49;;;;;;;6.78;6.00;;;;;;;16.56;76.69;99714.61;1733727;82;21154;-82
2022/05/31 06:28:27;;;;;;;7.85;6.20;;;;;;;16.57;76.53;99718.95;1736967;82;21089;-83
2022/05/31 06:30:53;;;;;;;11.93;6.58;;;;;;;16.55;76.38;99718.19;1740715;82;21076;-82
2022/05/31 06:33:20;;;;;;;10.68;5.90;;;;;;;16.55;76.35;99733.28;1740493;82;21025;-88
2022/05/31 06:35:48;;;;;;;8.75;6.05;;;;;;;16.57;76.31;99734.89;1740331;82;21007;-88
2022/05/31 06:38:17;;;;;;;9.60;6.17;;;;;;;16.58;76.03;99743.26;1740652;82;21679;-89
2022/05/31 06:40:44;;;;;;;7.42;5.80;;;;;;;16.56;75.90;99741.62;1740756;82;21092;-83
2022/05/31 06:43:11;;;;;;;6.45;5.87;;;;;;;16.54;75.92;99744.36;1740741;82;21124;-82
2022/05/31 06:45:56;;;;;;;10.10;5.83;;;;;;;16.55;75.95;99749.22;1740773;82;21101;-82
2022/05/31 06:48:42;;;;;;;7.47;5.60;;;;;;;16.55;76.05;99743.42;1740704;82;21395;-82
2022/05/31 06:57:35;;;;;;;5.78;5.25;;;;;;;16.55;76.03;99755.38;1740472;82;21571;-83
2022/05/31 07:00:13;;;;;;;7.37;5.65;;;;;;;16.52;76.16;99751.56;1740322;82;21084;-82
2022/05/31 07:02:41;;;;;;;6.45;5.35;;;;;;;16.51;76.29;99753.84;1740643;82;21104;-82
2022/05/31 07:05:10;;;;;;;6.58;5.25;;;;;;;16.51;76.39;99752.52;1740878;82;21074;-83
2022/05/31 07:07:38;;;;;;;5.95;5.45;;;;;;;16.54;76.55;99756.31;1720068;82;21085;-82
2022/05/31 07:10:23;;;;;;;7.90;5.90;;;;;;;16.57;76.43;99757.47;1740947;82;21089;-82
2022/05/31 07:13:10;;;;;;;6.45;5.50;;;;;;;16.58;76.37;99753.88;1621898;87;20983;-83
2022/05/31 07:15:38;;;;;;;5.75;5.15;;;;;;;16.62;76.27;99751.43;1622117;87;21051;-82
2022/05/31 07:18:15;;;;;;;6.33;5.40;;;;;;;16.65;76.30;99755.25;1645892;84;22086;-82
2022/05/31 07:20:44;;;;;;;6.97;5.37;;;;;;;16.70;76.10;99754.52;1719572;82;21603;-82
2022/05/31 07:23:12;;;;;;;6.75;5.67;;;;;;;16.75;75.83;99761.39;1740734;82;21010;-82
2022/05/31 07:25:40;;;;;;;7.20;5.50;;;;;;;16.76;75.54;99771.94;1739238;82;21072;-83
2022/05/31 07:28:10;;;;;;;11.08;5.28;;;;;;;16.80;74.98;99775.27;1740487;82;21144;-82
2022/05/31 07:30:38;;;;;;;5.42;4.92;;;;;;;16.85;74.83;99783.88;1740693;82;21800;-83
2022/05/31 07:33:06;;;;;;;5.75;4.75;;;;;;;16.88;74.53;99786.36;1745774;82;21065;-82
2022/05/31 07:35:33;;;;;;;5.00;4.60;;;;;;;16.93;74.32;99782.09;1748589;82;21048;-81
2022/05/31 07:38:00;;;;;;;4.50;4.08;;;;;;;16.97;74.01;99784.50;1748366;82;21160;-83
2022/05/31 07:40:28;;;;;;;3.52;3.22;;;;;;;17.00;72.87;99790.97;1747891;82;21134;-83
2022/05/31 07:42:55;;;;;;;7.45;4.03;;;;;;;17.02;70.99;99790.41;1750098;82;21740;-83
2022/05/31 07:45:23;;;;;;;5.12;3.87;;;;;;;17.01;70.47;99797.14;1750359;82;21072;-83
2022/05/31 07:47:50;;;;;;;3.98;3.67;;;;;;;17.02;70.22;99802.85;1713971;83;21004;-83
2022/05/31 07:50:17;;;;;;;4.87;3.87;;;;;;;17.03;70.38;99796.13;1714007;83;21059;-83
2022/05/31 07:52:51;;;;;;;;;;;;;;;17.07;70.21;99799.45;1752481;81;21047;-83
2022/05/31 07:55:19;;;;;;;7.60;5.40;;;;;;;17.06;70.19;99795.07;1754159;81;21359;-82
2022/05/31 08:00:41;;;;;;;6.17;4.92;;;;;;;17.01;70.13;99795.36;1694369;83;21086;-83
2022/05/31 08:03:08;;;;;;;7.37;5.17;;;;;;;16.95;70.40;99814.30;1714318;83;21137;-83
2022/05/31 08:05:39;;;;;;;9.63;5.42;;;;;;;16.93;71.10;99819.30;1714059;83;21376;-83
2022/05/31 08:08:06;;;;;;;5.53;5.10;;;;;;;16.86;71.71;99823.66;1714234;83;21776;-82
2022/05/31 08:10:33;;;;;;;5.28;4.78;;;;;;;16.75;72.17;99815.86;1713813;83;21063;-82
2022/05/31 08:13:01;;;;;;;8.38;5.35;;;;;;;16.71;72.78;99816.50;1714151;83;21653;-83
2022/05/31 08:15:28;;;;;;;5.00;4.60;;;;;;;16.72;72.88;99824.84;1714026;83;21098;-83
2022/05/31 08:17:54;;;;;;;6.40;4.53;;;;;;;16.69;71.91;99824.56;1714277;83;21569;-83
2022/05/31 08:20:21;;;;;;;4.67;4.10;;;;;;;16.63;70.57;99824.88;1714025;83;21565;-82
2022/05/31 08:22:48;;;;;;;4.37;3.92;;;;;;;16.59;69.99;99821.98;1714360;83;21530;-82
2022/05/31 08:25:14;;;;;;;10.65;4.25;;;;;;;16.55;69.79;99821.78;1713942;83;21042;-83
2022/05/31 08:27:41;;;;;;;7.67;4.60;;;;;;;16.52;69.83;99833.90;1714052;83;21054;-82
2022/05/31 08:30:10;;;;;;;8.50;4.40;;;;;;;16.48;69.88;99837.20;1713005;83;22333;-82
2022/05/31 08:32:37;;;;;;;5.90;4.35;;;;;;;16.45;69.99;99857.75;1707744;82;21157;-82
2022/05/31 08:35:07;;;;;;;4.50;4.10;;;;;;;16.43;69.97;99870.27;1686561;85;21572;-82
2022/05/31 08:37:34;;;;;;;5.83;4.40;;;;;;;16.35;70.02;99878.14;1686762;85;21125;-82
2022/05/31 08:40:00;;;;;;;4.85;4.33;;;;;;;16.26;70.26;99875.98;1686877;85;21137;-83
2022/05/31 08:42:48;;;;;;;5.30;4.10;;;;;;;16.16;70.41;99884.05;1686777;85;21140;-82
2022/05/31 08:45:48;;;;;;;5.85;3.95;;;;;;;16.10;71.37;99885.68;1686747;85;21161;-81
2022/05/31 08:48:34;;;;;;;5.85;3.83;;;;;;;16.04;72.36;99882.00;1670530;85;21043;-81
2022/05/31 08:57:01;;;;;;;5.05;3.10;;;;;;;16.00;73.49;99856.09;1686708;85;21091;-82
2022/05/31 08:59:44;;;;;;;5.47;3.50;;;;;;;15.95;73.58;99855.48;1685496;84;21169;-83
2022/05/31 09:02:21;;;;;;;8.43;3.30;;;;;;;15.90;73.89;99857.06;1686267;85;21093;-82
2022/05/31 09:05:06;;;;;;;7.67;3.10;;;;;;;15.86;74.24;99850.18;1683746;84;21089;-82
2022/05/31 09:07:43;;;;;;;;;;;;;;;15.82;74.12;99852.61;1689625;85;21097;-82
2022/05/31 09:10:29;;;;;;;4.50;3.10;;;;;;;15.71;74.11;99865.52;1686685;85;20197;-82
2022/05/31 09:13:02;;;;;;;8.85;3.35;;;;;;;15.52;74.46;99878.37;1665656;84;21127;-82
2022/05/31 09:15:40;;;;;;;11.38;3.37;;;;;;;15.34;75.27;99871.32;1686430;84;21581;-80
2022/05/31 09:18:19;;;;;;;5.25;3.00;;;;;;;15.16;76.05;99872.61;1686837;85;21006;-81
2022/05/31 09:20:56;;;;;;;5.30;2.70;;;;;;;15.02;76.23;99865.77;1686772;85;21010;-81
2022/05/31 09:23:28;;;;;;;5.42;2.12;;;;;;;14.92;76.19;99870.64;1686770;85;21134;-82
2022/05/31 09:26:11;;;;;;;6.87;2.10;;;;;;;14.86;76.31;99881.06;1686405;85;21113;-83
2022/05/31 09:28:53;;;;;;;2.33;1.77;;;;;;;14.87;76.38;99883.24;1686788;85;21605;-83
2022/05/31 09:31:49;;;;;;;2.85;1.90;;;;;;;14.89;76.29;99869.45;1685922;84;21034;-82
2022/05/31 09:34:42;;;;;;;2.27;1.40;;;;;;;14.91;76.25;99870.70;1686575;83;21517;-82
2022/05/31 09:37:21;;;;;;;3.35;1.75;;;;;;;14.92;75.78;99875.09;1730188;82;21033;-82
2022/05/31 09:40:08;;;;;;;2.40;1.90;;;;;;;14.92;75.36;99883.03;1734152;82;21135;-81
2022/05/31 09:42:52;;;;;;;4.40;1.80;;;;;;;14.91;75.54;99883.95;1733370;81;21107;-81
2022/05/31 09:45:19;;;;;;;4.25;1.92;;;;;;;14.88;75.39;99881.00;1721036;82;21052;-81
2022/05/31 09:47:50;;;;;;;3.33;1.75;;;;;;;14.86;75.40;99882.39;1733743;82;21170;-83
2022/05/31 09:50:25;;;;;;;2.60;2.00;;;;;;;14.85;75.30;99891.73;1653951;82;21650;-83
2022/05/31 09:52:58;;;;;;;4.97;2.45;;;;;;;14.80;75.55;99886.64;1733853;82;22363;-81
2022/05/31 09:58:36;;;;;;;3.85;1.80;;;;;;;14.73;75.69;99883.89;1730589;82;20988;-82
2022/05/31 10:01:27;;;;;;;4.33;2.08;;;;;;;14.72;75.83;99887.45;1730513;82;21108;-82
2022/05/31 10:04:08;;;;;;;6.60;2.00;;;;;;;14.72;76.02;99883.48;1733120;82;21091;-81
2022/05/31 10:06:36;;;;;;;3.00;2.30;;;;;;;14.72;76.42;99882.16;1733871;82;21053;-82
2022/05/31 10:09:17;;;;;;;2.58;2.37;;;;;;;14.71;76.56;99889.73;1666339;82;21066;-82
2022/05/31 10:11:45;;;;;;;3.72;2.85;;;;;;;14.71;76.76;99885.75;1733618;82;21012;-81
2022/05/31 10:14:23;;;;;;;4.65;2.87;;;;;;;14.72;76.91;99892.75;1733708;82;20984;-81
2022/05/31 10:16:49;;;;;;;4.25;2.67;;;;;;;14.74;77.28;99906.78;1733237;82;21123;-81
2022/05/31 10:19:23;;;;;;;4.37;2.65;;;;;;;14.77;77.44;99911.94;1733936;82;20977;-81
2022/05/31 10:21:50;;;;;;;3.10;2.80;;;;;;;14.80;77.69;99898.56;1733731;82;21052;-81
2022/05/31 10:24:22;;;;;;;3.58;3.08;;;;;;;14.88;78.03;99901.31;1732436;82;21075;-82
2022/05/31 10:27:23;;;;;;;3.40;3.15;;;;;;;14.97;78.20;99892.95;1733807;82;22038;-82
2022/05/31 10:29:55;;;;;;;6.42;3.50;;;;;;;15.09;78.82;99875.14;1733125;82;21092;-82
2022/05/31 10:32:52;;;;;;;6.42;3.12;;;;;;;15.18;78.83;99868.53;1720156;81;21155;-84
2022/05/31 10:35:26;;;;;;;3.30;3.02;;;;;;;15.29;79.00;99858.28;1752999;81;21078;-83
2022/05/31 10:38:04;;;;;;;2.83;2.62;;;;;;;15.39;79.34;99863.52;1753293;81;21043;-84
2022/05/31 10:40:46;;;;;;;4.85;2.83;;;;;;;15.50;78.90;99859.03;1753523;81;21494;-83
2022/05/31 10:43:30;;;;;;;3.15;2.95;;;;;;;15.58;78.38;99857.30;1737203;81;21961;-83
2022/05/31 10:45:57;;;;;;;3.25;2.67;;;;;;;15.65;78.40;99857.86;1750396;81;21555;-83
2022/05/31 10:48:24;;;;;;;2.65;2.45;;;;;;;15.70;77.44;99862.47;1752931;81;21038;-83
2022/05/31 10:51:16;;;;;;;3.70;2.52;;;;;;;15.79;77.46;99872.66;1726005;81;21054;-82
2022/05/31 10:54:00;;;;;;;5.35;2.72;;;;;;;15.87;77.28;99875.79;1752571;81;21612;-84
2022/05/31 10:56:57;;;;;;;3.85;3.40;;;;;;;15.93;76.62;99880.77;1753421;81;21038;-84
2022/05/31 10:59:30;;;;;;;3.50;3.30;;;;;;;15.95;76.13;99889.53;1753071;81;21529;-84
2022/05/31 11:02:31;;;;;;;3.10;2.90;;;;;;;16.00;75.90;99879.13;1753150;81;21033;-82
2022/05/31 11:05:10;;;;;;;3.33;3.02;;;;;;;16.00;75.92;99872.50;1753257;81;21023;-84
2022/05/31 11:11:33;;;;;;;3.05;2.70;;;;;;;16.13;76.42;99877.56;1753430;81;21184;-84
2022/05/31 11:14:23;;;;;;;3.27;2.70;;;;;;;16.21;75.58;99885.99;1753093;81;21137;-84
2022/05/31 11:17:24;;;;;;;3.40;2.80;;;;;;;16.26;75.26;99889.75;1753138;81;21329;-83
2022/05/31 11:20:13;;;;;;;2.75;2.55;;;;;;;16.33;74.94;99885.82;1753134;81;21085;-85
2022/05/31 11:22:57;;;;;;;2.77;2.67;;;;;;;16.49;74.50;99872.57;1752895;81;21062;-83
2022/05/31 11:25:49;;;;;;;3.90;2.77;;;;;;;16.71;74.97;99866.51;1744024;81;21101;-84
2022/05/31 11:28:42;;;;;;;3.70;2.12;;;;;;;16.96;74.72;99862.99;1754466;81;21795;-84
2022/05/31 11:31:42;;;;;;;5.22;3.22;;;;;;;17.22;73.70;99859.73;1752929;81;21050;-84
2022/05/31 11:34:38;;;;;;;2.95;2.75;;;;;;;17.43;73.04;99852.34;1703500;82;21565;-82
2022/05/31 11:37:42;;;;;;;3.65;3.05;;;;;;;17.72;73.43;99865.75;1747526;82;21081;-84
2022/05/31 11:40:50;;;;;;;2.90;2.62;;;;;;;18.01;73.88;99864.53;1747491;82;21498;-84
2022/05/31 11:43:28;;;;;;;2.60;2.40;;;;;;;18.25;72.15;99855.52;1718119;83;21106;-84
2022/05/31 11:46:16;;;;;;;4.55;2.70;;;;;;;18.41;70.52;99858.56;1717516;83;20988;-83
2022/05/31 11:49:03;;;;;;;5.53;2.80;;;;;;;18.43;69.33;99865.53;1715140;83;21113;-83
2022/05/31 11:51:47;;;;;;;4.28;2.52;;;;;;;18.51;69.66;99869.06;1717920;83;21046;-84
2022/05/31 11:55:25;;;;;;;5.70;2.35;;;;;;;18.61;69.17;99870.66;1711008;83;21079;-85
2022/05/31 11:57:29;;;;;;;2.70;2.50;;;;;;;18.66;68.12;99881.42;1713566;83;21174;-83
2022/05/31 12:00:04;;;;;;;5.45;2.08;;;;;;;18.66;67.11;99881.42;1717676;83;21121;-84
2022/05/31 12:02:51;;;;;;;2.08;1.98;;;;;;;18.69;66.30;99886.57;1716366;83;21064;-83
2022/05/31 12:05:34;;;;;;;3.30;2.17;;;;;;;18.63;65.67;99891.42;1717615;83;21031;-84
2022/05/31 12:08:22;;;;;;;2.45;1.90;;;;;;;18.52;65.79;99896.07;1717797;83;21125;-83
2022/05/31 12:10:55;;;;;;;2.12;2.02;;;;;;;18.50;65.91;99892.16;1717908;83;22186;-83
2022/05/31 12:13:22;;;;;;;2.20;2.10;;;;;;;18.59;65.57;99900.55;1717333;83;21058;-84
2022/05/31 12:15:52;;;;;;;2.27;2.08;;;;;;;18.66;65.59;99903.20;1717619;83;21003;-83
2022/05/31 12:18:39;;;;;;;4.58;1.95;;;;;;;18.75;65.04;99898.65;1717761;83;20991;-85
2022/05/31 12:21:41;;;;;;;2.25;2.05;;;;;;;18.82;65.34;99897.30;1717824;83;21003;-83
2022/05/31 12:24:21;;;;;;;2.72;2.02;;;;;;;18.91;64.99;99897.23;1717732;83;21141;-83
2022/05/31 12:27:15;;;;;;;4.50;2.60;;;;;;;18.98;64.61;99904.36;1692090;83;21101;-84
2022/05/31 12:30:19;;;;;;;1.75;1.65;;;;;;;18.92;63.64;99895.80;1717638;83;21109;-84
2022/05/31 12:32:48;;;;;;;2.60;2.42;;;;;;;18.80;64.17;99892.55;1697333;83;21082;-82
2022/05/31 12:35:35;;;;;;;3.12;2.92;;;;;;;18.69;64.05;99888.36;1708660;82;21035;-83